createdAt,value
2022-10-22T00:00:04.442Z,182.20
2022-10-22T00:01:04.471Z,185.00
2022-10-22T00:02:04.442Z,168.50
2022-10-22T00:03:04.480Z,174.20
2022-10-22T00:04:04.418Z,155.30
2022-10-22T00:05:04.422Z,133.80
2022-10-22T00:06:04.399Z,115.60
2022-10-22T00:07:04.370Z,103.70
2022-10-22T00:08:04.384Z,135.10
2022-10-22T00:09:04.409Z,113.60
2022-10-22T00:10:04.319Z,128.00
2022-10-22T00:11:04.289Z,125.60
2022-10-22T00:12:04.309Z,106.00
2022-10-22T00:13:04.287Z,102.30
2022-10-22T00:14:04.296Z,116.70
2022-10-22T00:15:25.251Z,135.40
2022-10-22T00:16:04.264Z,95.40
2022-10-22T00:17:05.860Z,127.20
2022-10-22T00:18:05.199Z,122.40
2022-10-22T00:19:04.196Z,138.10
2022-10-22T00:20:04.202Z,117.20
2022-10-22T00:21:04.153Z,182.90
2022-10-22T00:22:04.141Z,116.90
2022-10-22T00:23:04.125Z,183.00
2022-10-22T00:24:04.104Z,154.10
2022-10-22T00:25:04.099Z,187.20
2022-10-22T00:26:04.095Z,164.40
2022-10-22T00:27:04.063Z,176.70
2022-10-22T00:28:04.054Z,163.50
2022-10-22T00:29:04.975Z,190.40
2022-10-22T00:30:04.876Z,171.20
2022-10-22T00:31:04.097Z,179.80
2022-10-22T00:32:04.977Z,134.60
2022-10-22T00:33:03.975Z,103.90
2022-10-22T00:34:04.776Z,114.70
2022-10-22T00:35:03.968Z,123.00
2022-10-22T00:36:04.822Z,124.00
2022-10-22T00:37:04.581Z,94.50
2022-10-22T00:38:04.907Z,116.00
2022-10-22T00:39:03.936Z,111.30
2022-10-22T00:40:03.879Z,116.10
2022-10-22T00:41:03.942Z,115.90
2022-10-22T00:42:04.011Z,112.70
2022-10-22T00:43:04.097Z,100.60
2022-10-22T00:44:03.830Z,129.60
2022-10-22T00:45:04.229Z,164.80
2022-10-22T00:46:04.281Z,170.20
2022-10-22T00:47:04.761Z,142.90
2022-10-22T00:48:04.336Z,158.00
2022-10-22T00:49:04.408Z,152.20
2022-10-22T00:51:04.540Z,108.30
2022-10-22T00:52:03.702Z,86.70
2022-10-22T00:53:03.713Z,96.80
2022-10-22T00:54:03.675Z,98.40
2022-10-22T00:55:04.605Z,118.50
2022-10-22T00:56:04.482Z,110.00
2022-10-22T00:57:03.933Z,92.10
2022-10-22T00:58:03.643Z,162.10
2022-10-22T00:59:03.796Z,121.80
2022-10-22T01:00:04.593Z,125.20
2022-10-22T01:01:03.706Z,153.00
2022-10-22T01:02:03.564Z,155.20
2022-10-22T01:03:03.561Z,165.40
2022-10-22T01:04:04.855Z,156.80
2022-10-22T01:05:04.384Z,171.90
2022-10-22T01:06:04.535Z,111.50
2022-10-22T01:07:03.545Z,154.80
2022-10-22T01:08:03.543Z,148.80
2022-10-22T01:09:03.549Z,118.70
2022-10-22T01:10:04.365Z,112.80
2022-10-22T01:11:03.460Z,96.70
2022-10-22T01:12:03.555Z,146.90
2022-10-22T01:13:03.518Z,139.80
2022-10-22T01:14:03.397Z,115.30
2022-10-22T01:15:03.447Z,101.10
2022-10-22T01:16:03.408Z,100.90
2022-10-22T01:17:03.369Z,120.60
2022-10-22T01:18:03.349Z,156.80
2022-10-22T01:19:03.359Z,170.00
2022-10-22T01:20:03.380Z,108.00
2022-10-22T01:21:03.459Z,167.30
2022-10-22T01:22:03.451Z,137.90
2022-10-22T01:23:03.271Z,144.80
2022-10-22T01:24:03.350Z,173.10
2022-10-22T01:25:03.296Z,134.70
2022-10-22T01:26:03.401Z,154.40
2022-10-22T01:27:03.468Z,143.60
2022-10-22T01:28:03.458Z,129.50
2022-10-22T01:29:03.194Z,124.70
2022-10-22T01:30:03.183Z,148.40
2022-10-22T01:31:03.181Z,152.80
2022-10-22T01:32:03.405Z,144.10
2022-10-22T01:33:03.382Z,134.90
2022-10-22T01:34:03.148Z,112.90
2022-10-22T01:35:03.104Z,121.70
2022-10-22T01:36:03.403Z,107.50
2022-10-22T01:37:03.450Z,157.10
2022-10-22T01:38:03.413Z,98.30
2022-10-22T01:39:03.072Z,99.50
2022-10-22T01:40:03.712Z,122.30
2022-10-22T01:41:03.051Z,108.10
2022-10-22T01:42:03.015Z,112.50
2022-10-22T01:43:02.995Z,78.00
2022-10-22T01:44:03.027Z,122.50
2022-10-22T01:45:02.977Z,118.30
2022-10-22T01:46:02.955Z,133.00
2022-10-22T01:47:02.980Z,125.10
2022-10-22T01:48:02.917Z,107.70
2022-10-22T01:49:03.694Z,127.70
2022-10-22T01:50:02.929Z,95.80
2022-10-22T01:51:02.868Z,87.20
2022-10-22T01:52:02.898Z,111.40
2022-10-22T01:53:02.863Z,92.20
2022-10-22T01:54:02.849Z,81.60
2022-10-22T01:55:02.809Z,112.80
2022-10-22T01:56:02.801Z,83.10
2022-10-22T01:57:02.797Z,94.00
2022-10-22T01:58:02.800Z,101.50
2022-10-22T01:59:02.809Z,152.20
2022-10-22T02:00:02.756Z,96.60
2022-10-22T02:01:02.792Z,122.20
2022-10-22T02:02:02.720Z,114.00
2022-10-22T02:03:02.902Z,80.60
2022-10-22T02:04:02.711Z,139.60
2022-10-22T02:05:02.671Z,143.60
2022-10-22T02:06:02.676Z,84.50
2022-10-22T02:07:02.661Z,128.40
2022-10-22T02:08:02.635Z,89.70
2022-10-22T02:09:02.703Z,132.00
2022-10-22T02:10:02.999Z,132.10
2022-10-22T02:11:02.942Z,137.10
2022-10-22T02:12:02.640Z,125.50
2022-10-22T02:13:02.582Z,120.90
2022-10-22T02:14:02.752Z,196.70
2022-10-22T02:15:02.570Z,174.70
2022-10-22T02:16:02.527Z,160.80
2022-10-22T02:17:02.506Z,146.60
2022-10-22T02:18:02.493Z,145.20
2022-10-22T02:19:02.940Z,105.80
2022-10-22T02:20:02.474Z,125.30
2022-10-22T02:21:02.497Z,128.10
2022-10-22T02:22:02.434Z,112.70
2022-10-22T02:23:02.442Z,168.00
2022-10-22T02:24:02.416Z,226.50
2022-10-22T02:25:02.407Z,183.30
2022-10-22T02:26:02.377Z,159.20
2022-10-22T02:27:02.377Z,218.30
2022-10-22T02:28:02.337Z,183.30
2022-10-22T02:29:02.338Z,164.00
2022-10-22T02:30:02.400Z,299.90
2022-10-22T02:31:02.358Z,223.30
2022-10-22T02:32:02.318Z,372.50
2022-10-22T02:33:02.287Z,272.40
2022-10-22T02:34:02.258Z,150.10
2022-10-22T02:35:02.278Z,188.10
2022-10-22T02:36:02.238Z,165.00
2022-10-22T02:37:02.218Z,168.00
2022-10-22T02:38:02.230Z,134.20
2022-10-22T02:39:02.227Z,166.40
2022-10-22T02:40:02.180Z,126.60
2022-10-22T02:41:02.181Z,93.90
2022-10-22T02:42:02.138Z,130.70
2022-10-22T02:43:02.141Z,112.90
2022-10-22T02:44:02.131Z,150.30
2022-10-22T02:45:02.101Z,162.40
2022-10-22T02:46:02.102Z,110.90
2022-10-22T02:47:02.093Z,124.90
2022-10-22T02:48:02.112Z,133.20
2022-10-22T02:49:02.083Z,112.00
2022-10-22T02:50:04.519Z,200.70
2022-10-22T02:51:02.023Z,198.80
2022-10-22T02:52:02.003Z,268.20
2022-10-22T02:53:02.195Z,306.90
2022-10-22T02:54:01.974Z,312.80
2022-10-22T02:55:02.005Z,344.80
2022-10-22T02:56:01.953Z,239.10
2022-10-22T02:57:01.974Z,327.30
2022-10-22T02:58:01.925Z,154.90
2022-10-22T02:59:01.976Z,183.60
2022-10-22T03:00:01.887Z,123.80
2022-10-22T03:01:01.954Z,210.90
2022-10-22T03:02:01.894Z,281.70
2022-10-22T03:03:01.862Z,142.90
2022-10-22T03:04:01.849Z,276.40
2022-10-22T03:05:01.807Z,255.00
2022-10-22T03:06:01.817Z,216.60
2022-10-22T03:07:01.787Z,200.70
2022-10-22T03:08:02.219Z,194.50
2022-10-22T03:09:01.886Z,182.50
2022-10-22T03:10:01.865Z,108.40
2022-10-22T03:11:01.729Z,135.80
2022-10-22T03:12:02.187Z,142.90
2022-10-22T03:13:02.290Z,221.40
2022-10-22T03:14:01.679Z,92.60
2022-10-22T03:15:01.688Z,186.00
2022-10-22T03:16:01.774Z,154.30
2022-10-22T03:17:01.679Z,125.00
2022-10-22T03:18:01.692Z,118.60
2022-10-22T03:19:01.633Z,148.90
2022-10-22T03:20:01.601Z,98.60
2022-10-22T03:21:01.654Z,122.00
2022-10-22T03:22:01.590Z,172.20
2022-10-22T03:23:01.597Z,131.00
2022-10-22T03:24:01.561Z,111.90
2022-10-22T03:25:01.549Z,127.00
2022-10-22T03:26:01.545Z,125.70
2022-10-22T03:27:02.513Z,147.20
2022-10-22T03:28:01.484Z,122.40
2022-10-22T03:29:01.481Z,147.80
2022-10-22T03:30:01.491Z,164.90
2022-10-22T03:31:01.546Z,190.40
2022-10-22T03:32:01.442Z,249.30
2022-10-22T03:33:01.434Z,238.80
2022-10-22T03:34:01.602Z,230.00
2022-10-22T03:35:01.412Z,195.70
2022-10-22T03:36:01.469Z,226.20
2022-10-22T03:37:01.376Z,159.80
2022-10-22T03:38:01.402Z,187.40
2022-10-22T03:39:01.352Z,160.00
2022-10-22T03:40:01.341Z,167.60
2022-10-22T03:41:01.334Z,165.00
2022-10-22T03:42:02.149Z,130.70
2022-10-22T03:43:02.108Z,121.30
2022-10-22T03:44:01.265Z,137.40
2022-10-22T03:45:01.326Z,96.20
2022-10-22T03:46:05.082Z,120.40
2022-10-22T03:47:02.700Z,122.80
2022-10-22T03:48:01.428Z,136.00
2022-10-22T03:49:01.236Z,140.20
2022-10-22T03:50:01.178Z,141.30
2022-10-22T03:51:01.966Z,143.80
2022-10-22T03:52:02.169Z,129.40
2022-10-22T03:53:02.029Z,119.70
2022-10-22T03:54:01.938Z,120.70
2022-10-22T03:55:01.170Z,124.90
2022-10-22T03:56:01.153Z,131.60
2022-10-22T03:57:01.078Z,118.40
2022-10-22T03:58:02.061Z,84.60
2022-10-22T03:59:02.028Z,117.50
2022-10-22T04:00:01.910Z,116.00
2022-10-22T04:01:01.070Z,148.80
2022-10-22T04:02:01.954Z,165.90
2022-10-22T04:03:01.840Z,168.30
2022-10-22T04:04:02.029Z,180.00
2022-10-22T04:05:01.043Z,190.40
2022-10-22T04:06:01.087Z,112.20
2022-10-22T04:07:00.940Z,195.60
2022-10-22T04:08:01.871Z,226.80
2022-10-22T04:09:01.027Z,185.10
2022-10-22T04:10:00.941Z,172.20
2022-10-22T04:11:01.871Z,294.70
2022-10-22T04:12:00.862Z,305.70
2022-10-22T04:13:01.683Z,371.00
2022-10-22T04:14:01.879Z,427.40
2022-10-22T04:15:01.752Z,225.80
2022-10-22T04:16:00.844Z,255.10
2022-10-22T04:17:00.803Z,203.00
2022-10-22T04:18:00.797Z,219.80
2022-10-22T04:19:00.847Z,305.00
2022-10-22T04:20:02.200Z,257.80
2022-10-22T04:21:00.764Z,152.20
2022-10-22T04:22:00.733Z,149.00
2022-10-22T04:23:00.724Z,121.40
2022-10-22T04:24:00.754Z,135.90
2022-10-22T04:25:00.727Z,146.40
2022-10-22T04:26:00.704Z,159.30
2022-10-22T04:27:00.703Z,138.70
2022-10-22T04:28:00.725Z,128.50
2022-10-22T04:29:00.704Z,116.70
2022-10-22T04:30:00.670Z,167.10
2022-10-22T04:31:00.666Z,172.20
2022-10-22T04:32:00.617Z,196.10
2022-10-22T04:33:00.587Z,197.30
2022-10-22T04:34:00.629Z,203.80
2022-10-22T04:35:00.760Z,217.00
2022-10-22T04:36:00.589Z,169.90
2022-10-22T04:37:00.656Z,168.20
2022-10-22T04:38:00.620Z,190.30
2022-10-22T04:39:00.507Z,159.10
2022-10-22T04:40:00.490Z,187.00
2022-10-22T04:41:00.627Z,181.10
2022-10-22T04:42:00.479Z,164.30
2022-10-22T04:43:00.438Z,138.30
2022-10-22T04:44:00.423Z,120.20
2022-10-22T04:45:00.482Z,152.30
2022-10-22T04:46:00.464Z,178.50
2022-10-22T04:47:00.449Z,152.40
2022-10-22T04:48:00.404Z,145.60
2022-10-22T04:49:00.490Z,140.50
2022-10-22T04:50:00.430Z,129.70
2022-10-22T04:51:00.420Z,123.60
2022-10-22T04:52:00.365Z,127.40
2022-10-22T04:53:00.440Z,130.00
2022-10-22T04:54:00.393Z,130.30
2022-10-22T04:55:01.232Z,128.40
2022-10-22T04:56:00.435Z,141.80
2022-10-22T04:57:00.415Z,129.40
2022-10-22T04:58:00.375Z,149.20
2022-10-22T04:59:00.441Z,125.60
2022-10-22T05:00:00.199Z,135.70
2022-10-22T05:01:00.217Z,137.80
2022-10-22T05:02:00.164Z,100.70
2022-10-22T05:03:00.406Z,89.00
2022-10-22T05:04:00.426Z,77.90
2022-10-22T05:05:00.148Z,85.40
2022-10-22T05:06:00.183Z,96.50
2022-10-22T05:07:00.114Z,108.90
2022-10-22T05:08:00.097Z,102.90
2022-10-22T05:09:00.158Z,113.30
2022-10-22T05:10:00.082Z,59.10
2022-10-22T05:11:00.085Z,85.60
2022-10-22T05:12:00.045Z,79.90
2022-10-22T05:13:00.046Z,87.50
2022-10-22T05:14:00.005Z,99.90
2022-10-22T05:15:00.028Z,90.30
2022-10-22T05:15:59.982Z,102.40
2022-10-22T05:17:00.090Z,106.10
2022-10-22T05:17:59.956Z,86.80
2022-10-22T05:18:59.978Z,114.60
2022-10-22T05:19:59.995Z,104.50
2022-10-22T05:20:59.977Z,175.50
2022-10-22T05:21:59.895Z,237.90
2022-10-22T05:22:59.888Z,262.20
2022-10-22T05:24:00.721Z,148.00
2022-10-22T05:24:59.848Z,170.60
2022-10-22T05:25:59.829Z,194.00
2022-10-22T05:26:59.859Z,225.80
2022-10-22T05:28:00.372Z,164.30
2022-10-22T05:28:59.799Z,132.90
2022-10-22T05:30:00.139Z,167.10
2022-10-22T05:31:00.558Z,167.90
2022-10-22T05:31:59.764Z,130.80
2022-10-22T05:32:59.770Z,90.50
2022-10-22T05:33:59.931Z,149.00
2022-10-22T05:34:59.691Z,99.80
2022-10-22T05:35:59.681Z,84.10
2022-10-22T05:36:59.737Z,93.40
2022-10-22T05:37:59.700Z,95.80
2022-10-22T05:38:59.671Z,75.20
2022-10-22T05:40:12.370Z,79.40
2022-10-22T05:41:00.632Z,69.50
2022-10-22T05:41:59.682Z,65.50
2022-10-22T05:42:59.587Z,92.80
2022-10-22T05:43:59.601Z,95.90
2022-10-22T05:44:59.593Z,70.10
2022-10-22T05:45:59.559Z,76.10
2022-10-22T05:46:59.536Z,76.40
2022-10-22T05:47:59.527Z,91.00
2022-10-22T05:49:00.162Z,86.20
2022-10-22T05:49:59.543Z,136.00
2022-10-22T05:50:59.515Z,96.10
2022-10-22T05:51:59.511Z,100.10
2022-10-22T05:52:59.503Z,99.40
2022-10-22T05:53:59.454Z,121.10
2022-10-22T05:54:59.675Z,152.80
2022-10-22T05:55:59.408Z,88.80
2022-10-22T05:56:59.445Z,73.70
2022-10-22T05:57:59.379Z,98.60
2022-10-22T05:58:59.431Z,102.40
2022-10-22T05:59:59.473Z,114.40
2022-10-22T06:00:59.356Z,114.90
2022-10-22T06:01:59.515Z,78.00
2022-10-22T06:02:59.534Z,93.10
2022-10-22T06:03:59.299Z,55.30
2022-10-22T06:04:59.283Z,98.10
2022-10-22T06:05:59.268Z,78.30
2022-10-22T06:06:59.269Z,75.40
2022-10-22T06:08:00.688Z,93.10
2022-10-22T06:08:59.301Z,51.60
2022-10-22T06:10:00.237Z,66.50
2022-10-22T06:10:59.205Z,65.10
2022-10-22T06:11:59.211Z,75.60
2022-10-22T06:12:59.326Z,72.60
2022-10-22T06:13:59.158Z,51.60
2022-10-22T06:14:59.139Z,79.50
2022-10-22T06:15:59.159Z,90.40
2022-10-22T06:16:59.100Z,74.50
2022-10-22T06:17:59.132Z,57.70
2022-10-22T06:18:59.112Z,73.80
2022-10-22T06:19:59.127Z,78.70
2022-10-22T06:20:59.102Z,107.00
2022-10-22T06:21:59.032Z,95.30
2022-10-22T06:22:59.914Z,94.60
2022-10-22T06:23:59.044Z,118.90
2022-10-22T06:24:59.015Z,115.50
2022-10-22T06:25:59.006Z,123.30
2022-10-22T06:26:58.967Z,105.30
2022-10-22T06:27:58.954Z,103.40
2022-10-22T06:28:58.957Z,115.50
2022-10-22T06:29:58.935Z,89.70
2022-10-22T06:30:58.916Z,89.50
2022-10-22T06:31:58.998Z,105.50
2022-10-22T06:32:58.887Z,87.00
2022-10-22T06:33:58.886Z,114.80
2022-10-22T06:34:58.909Z,82.20
2022-10-22T06:35:58.865Z,106.30
2022-10-22T06:36:58.819Z,85.00
2022-10-22T06:37:58.819Z,103.70
2022-10-22T06:38:58.806Z,101.10
2022-10-22T06:39:58.787Z,124.70
2022-10-22T06:40:58.829Z,151.20
2022-10-22T06:41:58.768Z,135.00
2022-10-22T06:42:58.837Z,172.30
2022-10-22T06:43:58.744Z,152.30
2022-10-22T06:44:58.777Z,171.20
2022-10-22T06:45:58.720Z,153.90
2022-10-22T06:46:58.703Z,101.80
2022-10-22T06:47:58.682Z,90.40
2022-10-22T06:48:58.698Z,161.50
2022-10-22T06:49:58.652Z,147.10
2022-10-22T06:50:58.741Z,98.40
2022-10-22T06:51:58.620Z,114.20
2022-10-22T06:52:58.659Z,125.00
2022-10-22T06:53:58.596Z,123.20
2022-10-22T06:54:58.580Z,144.60
2022-10-22T06:55:58.582Z,141.40
2022-10-22T06:56:59.224Z,124.80
2022-10-22T06:57:58.542Z,117.90
2022-10-22T06:58:58.574Z,106.40
2022-10-22T06:59:58.524Z,95.70
2022-10-22T07:00:58.533Z,119.10
2022-10-22T07:01:58.471Z,116.60
2022-10-22T07:02:59.845Z,98.20
2022-10-22T07:03:58.463Z,135.10
2022-10-22T07:04:59.558Z,117.00
2022-10-22T07:05:58.465Z,112.80
2022-10-22T07:06:59.289Z,112.00
2022-10-22T07:07:58.425Z,98.10
2022-10-22T07:08:58.578Z,90.20
2022-10-22T07:09:59.310Z,95.40
2022-10-22T07:10:58.367Z,112.90
2022-10-22T07:11:58.344Z,99.30
2022-10-22T07:12:58.345Z,111.30
2022-10-22T07:13:59.116Z,99.20
2022-10-22T07:14:58.347Z,79.40
2022-10-22T07:15:58.286Z,119.00
2022-10-22T07:16:58.417Z,117.20
2022-10-22T07:17:59.266Z,101.90
2022-10-22T07:18:58.246Z,124.80
2022-10-22T07:19:59.090Z,143.00
2022-10-22T07:20:59.249Z,121.40
2022-10-22T07:21:59.155Z,105.90
2022-10-22T07:22:58.829Z,101.80
2022-10-22T07:23:59.227Z,89.70
2022-10-22T07:25:01.582Z,119.60
2022-10-22T07:25:59.022Z,105.70
2022-10-22T07:26:58.198Z,103.70
2022-10-22T07:27:58.159Z,106.00
2022-10-22T07:28:58.158Z,98.30
2022-10-22T07:29:58.110Z,100.80
2022-10-22T07:30:58.188Z,119.30
2022-10-22T07:31:58.081Z,94.20
2022-10-22T07:32:58.120Z,102.90
2022-10-22T07:33:58.992Z,147.10
2022-10-22T07:34:58.031Z,126.70
2022-10-22T07:35:58.022Z,142.10
2022-10-22T07:36:58.963Z,119.00
2022-10-22T07:37:58.862Z,119.80
2022-10-22T07:38:58.026Z,113.00
2022-10-22T07:40:01.496Z,127.50
2022-10-22T07:40:59.349Z,134.80
2022-10-22T07:41:58.043Z,110.50
2022-10-22T07:42:58.940Z,112.90
2022-10-22T07:43:58.794Z,132.70
2022-10-22T07:44:57.882Z,158.10
2022-10-22T07:45:59.348Z,162.20
2022-10-22T07:46:57.949Z,148.30
2022-10-22T07:47:58.706Z,193.00
2022-10-22T07:48:57.846Z,139.40
2022-10-22T07:49:57.849Z,131.70
2022-10-22T07:50:57.805Z,129.60
2022-10-22T07:51:59.096Z,130.30
2022-10-22T07:52:58.503Z,101.60
2022-10-22T07:53:58.214Z,126.90
2022-10-22T07:54:58.547Z,117.40
2022-10-22T07:55:58.671Z,85.00
2022-10-22T07:56:58.613Z,74.20
2022-10-22T07:57:57.815Z,89.00
2022-10-22T07:58:57.751Z,127.50
2022-10-22T07:59:57.696Z,148.10
2022-10-22T08:00:58.481Z,146.10
2022-10-22T08:01:57.850Z,99.70
2022-10-22T08:02:57.927Z,109.50
2022-10-22T08:03:57.669Z,127.50
2022-10-22T08:04:57.968Z,103.30
2022-10-22T08:05:58.020Z,96.60
2022-10-22T08:06:58.100Z,92.00
2022-10-22T08:07:57.592Z,144.60
2022-10-22T08:08:57.632Z,111.60
2022-10-22T08:09:58.235Z,81.50
2022-10-22T08:10:58.271Z,159.60
2022-10-22T08:11:58.410Z,153.10
2022-10-22T08:12:57.491Z,96.70
2022-10-22T08:13:58.394Z,93.70
2022-10-22T08:14:57.558Z,174.90
2022-10-22T08:15:58.323Z,120.20
2022-10-22T08:16:58.223Z,104.00
2022-10-22T08:17:58.392Z,88.10
2022-10-22T08:18:57.413Z,86.10
2022-10-22T08:19:57.391Z,131.60
2022-10-22T08:20:57.464Z,169.60
2022-10-22T08:21:57.406Z,110.50
2022-10-22T08:22:57.365Z,73.30
2022-10-22T08:23:57.375Z,82.40
2022-10-22T08:24:57.403Z,176.40
2022-10-22T08:25:57.383Z,131.60
2022-10-22T08:26:57.340Z,125.90
2022-10-22T08:27:57.305Z,90.60
2022-10-22T08:28:57.274Z,100.80
2022-10-22T08:29:57.257Z,89.00
2022-10-22T08:30:57.239Z,78.60
2022-10-22T08:31:57.248Z,106.10
2022-10-22T08:32:57.218Z,104.60
2022-10-22T08:33:57.240Z,97.80
2022-10-22T08:34:57.181Z,98.10
2022-10-22T08:35:57.204Z,72.50
2022-10-22T08:36:57.149Z,60.80
2022-10-22T08:37:57.137Z,94.90
2022-10-22T08:38:57.138Z,54.40
2022-10-22T08:39:57.172Z,97.30
2022-10-22T08:40:57.092Z,70.90
2022-10-22T08:41:57.089Z,86.80
2022-10-22T08:42:57.091Z,74.40
2022-10-22T08:43:57.058Z,69.20
2022-10-22T08:44:57.040Z,141.00
2022-10-22T08:45:57.030Z,174.10
2022-10-22T08:46:56.981Z,83.70
2022-10-22T08:47:57.014Z,82.50
2022-10-22T08:48:57.062Z,64.20
2022-10-22T08:49:57.841Z,94.20
2022-10-22T08:50:57.789Z,99.10
2022-10-22T08:51:56.932Z,100.60
2022-10-22T08:52:56.942Z,92.60
2022-10-22T08:53:56.904Z,141.30
2022-10-22T08:54:56.904Z,73.90
2022-10-22T08:55:59.393Z,79.00
2022-10-22T08:56:56.886Z,56.80
2022-10-22T08:57:56.873Z,68.00
2022-10-22T08:58:56.903Z,120.10
2022-10-22T08:59:56.875Z,151.70
2022-10-22T09:00:56.857Z,76.70
2022-10-22T09:01:56.767Z,67.80
2022-10-22T09:02:56.787Z,70.00
2022-10-22T09:03:56.769Z,48.80
2022-10-22T09:04:57.679Z,97.90
2022-10-22T09:05:56.752Z,60.70
2022-10-22T09:06:56.719Z,49.60
2022-10-22T09:07:56.686Z,96.40
2022-10-22T09:08:56.730Z,88.80
2022-10-22T09:09:56.689Z,49.40
2022-10-22T09:10:56.679Z,46.00
2022-10-22T09:11:57.518Z,71.10
2022-10-22T09:12:56.604Z,53.00
2022-10-22T09:13:56.610Z,59.90
2022-10-22T09:14:56.615Z,57.20
2022-10-22T09:15:58.077Z,39.90
2022-10-22T09:16:56.578Z,51.40
2022-10-22T09:17:56.569Z,89.50
2022-10-22T09:18:56.540Z,88.50
2022-10-22T09:19:56.513Z,45.90
2022-10-22T09:20:56.500Z,41.70
2022-10-22T09:21:56.493Z,47.20
2022-10-22T09:22:56.482Z,41.40
2022-10-22T09:23:56.461Z,64.90
2022-10-22T09:24:56.427Z,55.40
2022-10-22T09:25:56.452Z,40.00
2022-10-22T09:26:56.433Z,40.00
2022-10-22T09:27:56.405Z,57.20
2022-10-22T09:28:57.167Z,62.00
2022-10-22T09:29:56.367Z,43.50
2022-10-22T09:31:56.372Z,40.70
2022-10-22T09:32:56.355Z,40.80
2022-10-22T09:33:56.325Z,36.90
2022-10-22T09:34:56.325Z,50.50
2022-10-22T09:35:56.297Z,48.20
2022-10-22T09:36:56.276Z,45.10
2022-10-22T09:37:56.267Z,44.80
2022-10-22T09:38:56.298Z,22.10
2022-10-22T09:39:56.768Z,24.10
2022-10-22T09:40:56.236Z,28.90
2022-10-22T09:41:56.192Z,28.10
2022-10-22T09:42:56.228Z,25.30
2022-10-22T09:43:56.158Z,39.60
2022-10-22T09:44:56.171Z,46.50
2022-10-22T09:45:56.173Z,39.00
2022-10-22T09:46:56.131Z,39.00
2022-10-22T09:48:02.019Z,28.50
2022-10-22T09:48:57.164Z,48.90
2022-10-22T09:49:56.101Z,26.50
2022-10-22T09:50:56.553Z,26.80
2022-10-22T09:51:56.071Z,31.70
2022-10-22T09:52:56.041Z,31.60
2022-10-22T09:53:56.030Z,34.60
2022-10-22T09:54:56.025Z,33.50
2022-10-22T09:56:56.843Z,25.40
2022-10-22T09:57:55.966Z,21.80
2022-10-22T09:58:55.965Z,33.50
2022-10-22T09:59:55.943Z,16.90
2022-10-22T10:00:55.904Z,20.10
2022-10-22T10:01:55.922Z,24.70
2022-10-22T10:02:56.754Z,16.90
2022-10-22T10:03:55.934Z,21.10
2022-10-22T10:04:55.914Z,14.90
2022-10-22T10:05:56.042Z,14.20
2022-10-22T10:06:55.867Z,17.00
2022-10-22T10:07:55.851Z,18.40
2022-10-22T10:08:55.876Z,22.60
2022-10-22T10:09:55.830Z,13.70
2022-10-22T10:10:55.832Z,17.10
2022-10-22T10:11:55.781Z,13.50
2022-10-22T10:12:55.753Z,16.50
2022-10-22T10:13:55.782Z,14.50
2022-10-22T10:14:55.729Z,17.90
2022-10-22T10:15:55.749Z,15.90
2022-10-22T10:16:55.688Z,13.70
2022-10-22T10:17:55.689Z,16.80
2022-10-22T10:18:55.667Z,13.90
2022-10-22T10:19:57.012Z,10.10
2022-10-22T10:20:55.650Z,15.80
2022-10-22T10:21:55.655Z,18.00
2022-10-22T10:22:56.592Z,36.50
2022-10-22T10:23:55.623Z,28.70
2022-10-22T10:24:55.677Z,12.30
2022-10-22T10:25:55.593Z,15.20
2022-10-22T10:26:55.610Z,13.60
2022-10-22T10:27:55.553Z,11.60
2022-10-22T10:28:55.555Z,11.80
2022-10-22T10:29:55.542Z,17.40
2022-10-22T10:30:55.578Z,11.00
2022-10-22T10:31:55.513Z,10.50
2022-10-22T10:32:56.455Z,17.50
2022-10-22T10:33:55.454Z,16.10
2022-10-22T10:34:56.205Z,11.70
2022-10-22T10:35:55.428Z,14.10
2022-10-22T10:36:56.275Z,13.70
2022-10-22T10:37:55.655Z,15.90
2022-10-22T10:38:55.427Z,15.10
2022-10-22T10:39:56.244Z,11.80
2022-10-22T10:40:55.354Z,10.30
2022-10-22T10:41:56.797Z,17.50
2022-10-22T10:42:56.208Z,14.70
2022-10-22T10:43:55.322Z,11.40
2022-10-22T10:44:55.295Z,12.90
2022-10-22T10:45:56.169Z,8.60
2022-10-22T10:46:56.078Z,15.20
2022-10-22T10:47:55.231Z,13.30
2022-10-22T10:48:56.141Z,14.00
2022-10-22T10:49:55.210Z,12.50
2022-10-22T10:50:55.296Z,14.80
2022-10-22T10:51:56.110Z,11.30
2022-10-22T10:52:55.210Z,12.60
2022-10-22T10:53:55.921Z,13.30
2022-10-22T10:54:56.137Z,11.30
2022-10-22T10:55:55.983Z,11.40
2022-10-22T10:56:55.884Z,12.70
2022-10-22T10:57:55.093Z,13.10
2022-10-22T10:58:55.118Z,17.30
2022-10-22T10:59:55.078Z,13.10
2022-10-22T11:00:55.064Z,12.10
2022-10-22T11:01:55.156Z,13.60
2022-10-22T11:03:55.983Z,12.50
2022-10-22T11:04:56.508Z,12.30
2022-10-22T11:05:55.787Z,15.30
2022-10-22T11:07:10.659Z,15.50
2022-10-22T11:07:56.572Z,9.60
2022-10-22T11:08:56.441Z,9.50
2022-10-22T11:09:54.911Z,7.60
2022-10-22T11:10:54.988Z,11.40
2022-10-22T11:11:55.251Z,12.10
2022-10-22T11:12:54.888Z,8.90
2022-10-22T11:13:55.787Z,10.20
2022-10-22T11:14:55.691Z,9.20
2022-10-22T11:15:54.851Z,10.00
2022-10-22T11:16:55.793Z,12.30
2022-10-22T11:17:55.660Z,9.80
2022-10-22T11:18:54.855Z,9.10
2022-10-22T11:19:59.167Z,9.10
2022-10-22T11:20:55.789Z,12.50
2022-10-22T11:21:56.246Z,7.10
2022-10-22T11:23:18.164Z,8.90
2022-10-22T11:23:55.835Z,6.20
2022-10-22T11:24:55.561Z,8.90
2022-10-22T11:25:55.696Z,7.30
2022-10-22T11:26:55.563Z,10.90
2022-10-22T11:27:59.764Z,9.20
2022-10-22T11:28:55.847Z,8.80
2022-10-22T11:29:55.632Z,9.80
2022-10-22T11:30:55.481Z,8.60
2022-10-22T11:31:54.699Z,8.40
2022-10-22T11:32:56.070Z,8.80
2022-10-22T11:34:04.768Z,7.50
2022-10-22T11:34:55.605Z,6.10
2022-10-22T11:35:55.518Z,7.80
2022-10-22T11:36:55.408Z,7.10
2022-10-22T11:37:55.329Z,8.80
2022-10-22T11:38:55.438Z,6.80
2022-10-22T11:39:54.626Z,6.80
2022-10-22T11:40:54.756Z,6.10
2022-10-22T11:41:54.678Z,7.60
2022-10-22T11:42:54.855Z,7.70
2022-10-22T11:43:54.812Z,7.20
2022-10-22T11:44:55.060Z,11.30
2022-10-22T11:45:54.861Z,6.60
2022-10-22T11:46:54.442Z,7.30
2022-10-22T11:47:54.391Z,6.50
2022-10-22T11:48:55.069Z,8.40
2022-10-22T11:49:54.417Z,7.10
2022-10-22T11:50:55.326Z,7.20
2022-10-22T11:51:54.362Z,4.20
2022-10-22T11:52:54.517Z,3.20
2022-10-22T11:53:54.482Z,6.90
2022-10-22T11:54:54.373Z,7.50
2022-10-22T11:55:54.283Z,8.50
2022-10-22T11:56:54.315Z,4.80
2022-10-22T11:57:54.255Z,5.90
2022-10-22T11:58:54.980Z,5.90
2022-10-22T11:59:54.266Z,7.20
2022-10-22T12:00:54.323Z,7.70
2022-10-22T12:01:54.265Z,6.40
2022-10-22T12:02:54.352Z,6.10
2022-10-22T12:03:54.185Z,5.50
2022-10-22T12:04:54.324Z,4.60
2022-10-22T12:05:54.218Z,5.30
2022-10-22T12:06:54.197Z,7.00
2022-10-22T12:07:54.164Z,6.10
2022-10-22T12:08:54.320Z,5.50
2022-10-22T12:09:54.374Z,6.30
2022-10-22T12:10:54.119Z,6.70
2022-10-22T12:11:54.134Z,6.50
2022-10-22T12:12:54.090Z,7.10
2022-10-22T12:13:54.090Z,5.80
2022-10-22T12:14:54.844Z,8.60
2022-10-22T12:15:54.007Z,6.20
2022-10-22T12:16:56.634Z,6.60
2022-10-22T12:17:54.002Z,4.20
2022-10-22T12:18:53.956Z,5.40
2022-10-22T12:19:55.509Z,6.20
2022-10-22T12:20:54.005Z,4.80
2022-10-22T12:21:54.775Z,7.10
2022-10-22T12:22:55.375Z,5.90
2022-10-22T12:23:53.974Z,5.50
2022-10-22T12:24:53.907Z,5.90
2022-10-22T12:25:53.896Z,7.80
2022-10-22T12:26:53.885Z,6.90
2022-10-22T12:27:53.909Z,6.00
2022-10-22T12:28:53.871Z,7.40
2022-10-22T12:29:53.838Z,7.00
2022-10-22T12:30:53.806Z,7.50
2022-10-22T12:31:53.787Z,7.30
2022-10-22T12:32:53.779Z,8.80
2022-10-22T12:33:53.840Z,6.80
2022-10-22T12:34:53.767Z,6.90
2022-10-22T12:35:53.801Z,7.20
2022-10-22T12:36:53.748Z,6.70
2022-10-22T12:37:53.703Z,11.10
2022-10-22T12:38:53.710Z,5.20
2022-10-22T12:39:54.438Z,5.00
2022-10-22T12:40:53.680Z,6.50
2022-10-22T12:41:53.664Z,7.40
2022-10-22T12:42:53.667Z,4.30
2022-10-22T12:43:53.596Z,6.40
2022-10-22T12:44:53.612Z,7.40
2022-10-22T12:45:53.565Z,6.60